PTJYK SBSV-SDIH
Flight info
| Callsign | PTJYK |
|---|---|
| Flight time | N/A |
| Altitude | 5500 |
| Route | REA DCT 1257S03821W 1301S03828W 1300S03831W 1307S03847W 1323S03854W 1629S03904W 1643S03906W 1952S04005W 2003S04011W 2011S04011W 2231S04204W 2257S04229W 2302S04300W 2305S04328W 2314S04407W 2318S04427W 2331S04504W 2331S04550W DCT |
| Aircraft | SR22/L-SDGRY/S |
Departure
| Time | N/A |
|---|---|
| Airport | Deputado Luiz Eduardo Magalhães International Airport (SBSV) |
Arrival
| Time | 2026-05-05 04:30 |
|---|---|
| Airport | Fazenda Irohy Airport (SDIH) |
| Time | Latitude | Longitude | Altitude | Speed | Heading |
|---|---|---|---|---|---|
| 2026-05-05 02:54 | -22.36905 | -41.95397 | 5491 ft | 182 kts | 218° |
| 2026-05-05 02:54 | -22.37890 | -41.96211 | 5495 ft | 180 kts | 218° |
| 2026-05-05 02:55 | -22.38881 | -41.97033 | 5490 ft | 179 kts | 218° |
| 2026-05-05 02:55 | -22.39867 | -41.97846 | 5493 ft | 179 kts | 217° |
| 2026-05-05 02:55 | -22.40855 | -41.98662 | 5490 ft | 180 kts | 217° |
| 2026-05-05 02:55 | -22.41852 | -41.99485 | 5491 ft | 181 kts | 217° |
| 2026-05-05 02:56 | -22.42853 | -42.00314 | 5496 ft | 181 kts | 218° |
| 2026-05-05 02:56 | -22.43853 | -42.01140 | 5498 ft | 182 kts | 217° |
| 2026-05-05 02:56 | -22.44520 | -42.01692 | 5493 ft | 182 kts | 217° |
| 2026-05-05 02:56 | -22.45529 | -42.02525 | 5496 ft | 183 kts | 217° |
| 2026-05-05 02:57 | -22.46538 | -42.03362 | 5502 ft | 183 kts | 218° |
| 2026-05-05 02:57 | -22.47872 | -42.04470 | 5502 ft | 182 kts | 217° |
| 2026-05-05 02:57 | -22.48875 | -42.05298 | 5500 ft | 181 kts | 218° |
| 2026-05-05 02:57 | -22.49869 | -42.06122 | 5498 ft | 179 kts | 217° |
| 2026-05-05 02:58 | -22.50526 | -42.06664 | 5499 ft | 180 kts | 217° |
| 2026-05-05 02:58 | -22.51515 | -42.07482 | 5499 ft | 178 kts | 218° |
| 2026-05-05 02:58 | -22.52495 | -42.08306 | 5500 ft | 179 kts | 220° |
| 2026-05-05 02:58 | -22.53423 | -42.09204 | 5501 ft | 179 kts | 221° |
| 2026-05-05 02:59 | -22.54357 | -42.10096 | 5503 ft | 179 kts | 221° |
| 2026-05-05 02:59 | -22.55294 | -42.10988 | 5503 ft | 180 kts | 221° |
| 2026-05-05 02:59 | -22.56236 | -42.11889 | 5496 ft | 180 kts | 221° |
| 2026-05-05 02:59 | -22.57167 | -42.12783 | 5496 ft | 179 kts | 221° |
| 2026-05-05 03:00 | -22.58098 | -42.13673 | 5498 ft | 179 kts | 221° |
| 2026-05-05 03:00 | -22.59019 | -42.14552 | 5499 ft | 179 kts | 221° |
| 2026-05-05 03:00 | -22.59955 | -42.15448 | 5499 ft | 180 kts | 221° |
| 2026-05-05 03:00 | -22.60890 | -42.16345 | 5497 ft | 179 kts | 221° |
| 2026-05-05 03:01 | -22.61824 | -42.17240 | 5498 ft | 180 kts | 221° |
| 2026-05-05 03:01 | -22.62757 | -42.18133 | 5497 ft | 178 kts | 221° |
| 2026-05-05 03:01 | -22.63685 | -42.19024 | 5489 ft | 179 kts | 221° |
| 2026-05-05 03:01 | -22.64618 | -42.19918 | 5488 ft | 180 kts | 221° |
| 2026-05-05 03:02 | -22.65554 | -42.20815 | 5487 ft | 180 kts | 221° |
| 2026-05-05 03:02 | -22.66491 | -42.21708 | 5487 ft | 179 kts | 221° |
| 2026-05-05 03:02 | -22.67407 | -42.22586 | 5485 ft | 178 kts | 221° |
| 2026-05-05 03:02 | -22.68333 | -42.23484 | 5484 ft | 179 kts | 221° |
| 2026-05-05 03:03 | -22.69268 | -42.24373 | 5482 ft | 179 kts | 221° |
| 2026-05-05 03:03 | -22.70198 | -42.25267 | 5488 ft | 179 kts | 221° |
| 2026-05-05 03:03 | -22.71130 | -42.26162 | 5483 ft | 179 kts | 221° |
| 2026-05-05 03:03 | -22.72067 | -42.27060 | 5482 ft | 180 kts | 221° |
| 2026-05-05 03:04 | -22.73008 | -42.27963 | 5484 ft | 181 kts | 221° |
| 2026-05-05 03:04 | -22.73952 | -42.28869 | 5484 ft | 181 kts | 221° |
| 2026-05-05 03:04 | -22.74894 | -42.29775 | 5491 ft | 181 kts | 222° |
| 2026-05-05 03:04 | -22.75822 | -42.30667 | 5491 ft | 180 kts | 222° |
| 2026-05-05 03:05 | -22.76757 | -42.31565 | 5486 ft | 179 kts | 222° |
| 2026-05-05 03:05 | -22.77686 | -42.32459 | 5484 ft | 178 kts | 221° |
| 2026-05-05 03:05 | -22.78617 | -42.33348 | 5490 ft | 179 kts | 221° |
| 2026-05-05 03:05 | -22.79544 | -42.34248 | 5490 ft | 178 kts | 222° |
| 2026-05-05 03:06 | -22.80466 | -42.35134 | 5488 ft | 176 kts | 222° |
| 2026-05-05 03:06 | -22.81384 | -42.36013 | 5486 ft | 176 kts | 222° |
| 2026-05-05 03:06 | -22.82304 | -42.36893 | 5478 ft | 176 kts | 221° |
| 2026-05-05 03:06 | -22.83224 | -42.37774 | 5475 ft | 177 kts | 221° |
| 2026-05-05 03:07 | -22.84129 | -42.38655 | 5482 ft | 178 kts | 222° |
| 2026-05-05 03:07 | -22.85052 | -42.39545 | 5482 ft | 177 kts | 222° |
| 2026-05-05 03:07 | -22.85975 | -42.40433 | 5478 ft | 177 kts | 222° |
| 2026-05-05 03:07 | -22.86898 | -42.41323 | 5481 ft | 178 kts | 221° |
| 2026-05-05 03:08 | -22.87825 | -42.42210 | 5480 ft | 178 kts | 221° |
| 2026-05-05 03:08 | -22.88753 | -42.43102 | 5479 ft | 179 kts | 221° |
| 2026-05-05 03:08 | -22.89683 | -42.44002 | 5482 ft | 179 kts | 222° |
| 2026-05-05 03:08 | -22.90611 | -42.44896 | 5476 ft | 178 kts | 221° |
| 2026-05-05 03:09 | -22.91532 | -42.45780 | 5480 ft | 177 kts | 222° |
| 2026-05-05 03:09 | -22.92449 | -42.46664 | 5482 ft | 179 kts | 221° |
| 2026-05-05 03:09 | -22.93375 | -42.47562 | 5476 ft | 179 kts | 222° |
| 2026-05-05 03:09 | -22.94300 | -42.48449 | 5476 ft | 176 kts | 223° |
| 2026-05-05 03:10 | -22.95189 | -42.49345 | 5473 ft | 174 kts | 229° |
| 2026-05-05 03:10 | -22.95796 | -42.50459 | 5467 ft | 171 kts | 248° |
| 2026-05-05 03:10 | -22.96066 | -42.51725 | 5469 ft | 173 kts | 260° |
| 2026-05-05 03:10 | -22.96273 | -42.53017 | 5469 ft | 175 kts | 258° |
| 2026-05-05 03:11 | -22.96494 | -42.54313 | 5471 ft | 174 kts | 258° |
| 2026-05-05 03:11 | -22.96705 | -42.55602 | 5470 ft | 174 kts | 259° |
| 2026-05-05 03:11 | -22.96914 | -42.56878 | 5469 ft | 174 kts | 259° |
| 2026-05-05 03:11 | -22.97128 | -42.58173 | 5467 ft | 175 kts | 259° |
| 2026-05-05 03:12 | -22.97343 | -42.59476 | 5465 ft | 176 kts | 259° |
| 2026-05-05 03:12 | -22.97559 | -42.60788 | 5465 ft | 177 kts | 259° |
| 2026-05-05 03:12 | -22.97775 | -42.62103 | 5467 ft | 177 kts | 259° |
| 2026-05-05 03:12 | -22.97989 | -42.63416 | 5466 ft | 177 kts | 259° |
| 2026-05-05 03:13 | -22.98203 | -42.64724 | 5468 ft | 176 kts | 258° |
| 2026-05-05 03:13 | -22.98419 | -42.66028 | 5464 ft | 175 kts | 259° |
| 2026-05-05 03:13 | -22.98634 | -42.67332 | 5465 ft | 176 kts | 258° |
| 2026-05-05 03:13 | -22.98845 | -42.68619 | 5469 ft | 176 kts | 259° |
| 2026-05-05 03:14 | -22.99056 | -42.69920 | 5466 ft | 174 kts | 259° |
| 2026-05-05 03:14 | -22.99268 | -42.71211 | 5466 ft | 173 kts | 259° |
| 2026-05-05 03:14 | -22.99478 | -42.72500 | 5466 ft | 174 kts | 258° |
| 2026-05-05 03:14 | -22.99691 | -42.73796 | 5465 ft | 175 kts | 259° |
| 2026-05-05 03:15 | -22.99902 | -42.75090 | 5465 ft | 174 kts | 258° |
| 2026-05-05 03:15 | -23.00115 | -42.76388 | 5462 ft | 176 kts | 259° |
| 2026-05-05 03:15 | -23.00328 | -42.77697 | 5463 ft | 177 kts | 259° |
| 2026-05-05 03:15 | -23.00541 | -42.79001 | 5463 ft | 175 kts | 259° |
| 2026-05-05 03:16 | -23.00748 | -42.80270 | 5463 ft | 175 kts | 259° |
| 2026-05-05 03:16 | -23.00960 | -42.81573 | 5461 ft | 175 kts | 258° |
| 2026-05-05 03:16 | -23.01175 | -42.82877 | 5459 ft | 177 kts | 259° |
| 2026-05-05 03:16 | -23.01388 | -42.84195 | 5460 ft | 178 kts | 259° |
| 2026-05-05 03:17 | -23.01603 | -42.85519 | 5462 ft | 178 kts | 259° |
| 2026-05-05 03:17 | -23.01819 | -42.86847 | 5460 ft | 179 kts | 259° |
| 2026-05-05 03:17 | -23.02035 | -42.88177 | 5459 ft | 179 kts | 259° |
| 2026-05-05 03:17 | -23.02250 | -42.89506 | 5462 ft | 178 kts | 259° |
| 2026-05-05 03:18 | -23.02465 | -42.90827 | 5462 ft | 178 kts | 259° |
| 2026-05-05 03:18 | -23.02678 | -42.92130 | 5465 ft | 177 kts | 259° |
| 2026-05-05 03:18 | -23.02890 | -42.93448 | 5464 ft | 177 kts | 259° |
| 2026-05-05 03:18 | -23.03102 | -42.94757 | 5466 ft | 176 kts | 259° |
| 2026-05-05 03:19 | -23.03524 | -42.97353 | 5464 ft | 174 kts | 259° |
| 2026-05-05 03:19 | -23.03733 | -42.98645 | 5462 ft | 174 kts | 259° |
| 2026-05-05 03:19 | -23.03943 | -42.99940 | 5460 ft | 174 kts | 259° |
| 2026-05-05 03:20 | -23.04118 | -43.01246 | 5455 ft | 176 kts | 263° |
| 2026-05-05 03:20 | -23.04257 | -43.02563 | 5459 ft | 176 kts | 262° |
| 2026-05-05 03:20 | -23.04407 | -43.03879 | 5457 ft | 176 kts | 262° |
| 2026-05-05 03:20 | -23.04551 | -43.05178 | 5457 ft | 176 kts | 262° |
| 2026-05-05 03:21 | -23.04699 | -43.06499 | 5452 ft | 177 kts | 262° |
| 2026-05-05 03:21 | -23.04846 | -43.07831 | 5454 ft | 178 kts | 263° |
| 2026-05-05 03:21 | -23.04991 | -43.09160 | 5457 ft | 177 kts | 263° |
| 2026-05-05 03:21 | -23.05139 | -43.10486 | 5456 ft | 177 kts | 263° |
| 2026-05-05 03:22 | -23.05285 | -43.11817 | 5456 ft | 178 kts | 263° |
| 2026-05-05 03:22 | -23.05432 | -43.13149 | 5449 ft | 177 kts | 263° |
| 2026-05-05 03:22 | -23.05578 | -43.14474 | 5437 ft | 177 kts | 263° |
| 2026-05-05 03:22 | -23.05728 | -43.15844 | 5199 ft | 188 kts | 263° |
| 2026-05-05 03:23 | -23.05882 | -43.17259 | 4971 ft | 194 kts | 263° |
| 2026-05-05 03:23 | -23.06042 | -43.18723 | 4731 ft | 197 kts | 264° |
| 2026-05-05 03:23 | -23.06202 | -43.20200 | 4487 ft | 198 kts | 265° |
| 2026-05-05 03:23 | -23.06365 | -43.21687 | 4254 ft | 198 kts | 265° |
| 2026-05-05 03:24 | -23.06529 | -43.23177 | 4009 ft | 199 kts | 265° |
| 2026-05-05 03:24 | -23.06689 | -43.24645 | 3964 ft | 192 kts | 264° |
| 2026-05-05 03:24 | -23.06844 | -43.26059 | 3960 ft | 186 kts | 264° |
| 2026-05-05 03:24 | -23.06996 | -43.27443 | 3955 ft | 182 kts | 266° |
| 2026-05-05 03:25 | -23.07143 | -43.28779 | 3936 ft | 181 kts | 265° |
| 2026-05-05 03:25 | -23.07294 | -43.30175 | 3721 ft | 189 kts | 265° |
| 2026-05-05 03:25 | -23.07448 | -43.31611 | 3506 ft | 193 kts | 265° |
| 2026-05-05 03:25 | -23.07609 | -43.33069 | 3296 ft | 195 kts | 265° |
| 2026-05-05 03:26 | -23.07768 | -43.34540 | 3071 ft | 197 kts | 265° |
| 2026-05-05 03:26 | -23.07930 | -43.36004 | 2968 ft | 192 kts | 265° |
| 2026-05-05 03:26 | -23.08085 | -43.37415 | 2964 ft | 186 kts | 266° |
| 2026-05-05 03:26 | -23.08234 | -43.38802 | 2961 ft | 184 kts | 266° |
| 2026-05-05 03:27 | -23.08381 | -43.40178 | 2958 ft | 182 kts | 266° |
| 2026-05-05 03:27 | -23.08531 | -43.41527 | 2951 ft | 183 kts | 267° |
| 2026-05-05 03:27 | -23.08683 | -43.42906 | 2951 ft | 184 kts | 268° |
| 2026-05-05 03:27 | -23.08826 | -43.44285 | 2959 ft | 183 kts | 269° |
| 2026-05-05 03:28 | -23.08974 | -43.45653 | 2960 ft | 181 kts | 269° |
| 2026-05-05 03:28 | -23.09118 | -43.47010 | 2961 ft | 181 kts | 268° |
| 2026-05-05 03:28 | -23.09364 | -43.48353 | 2960 ft | 183 kts | 257° |
| 2026-05-05 03:28 | -23.09702 | -43.49680 | 2961 ft | 182 kts | 258° |
| 2026-05-05 03:29 | -23.10030 | -43.51006 | 2962 ft | 183 kts | 260° |
| 2026-05-05 03:29 | -23.10344 | -43.52342 | 2959 ft | 182 kts | 260° |
| 2026-05-05 03:29 | -23.10651 | -43.53653 | 2959 ft | 181 kts | 260° |
| 2026-05-05 03:29 | -23.10971 | -43.54976 | 2957 ft | 181 kts | 259° |
| 2026-05-05 03:30 | -23.11284 | -43.56293 | 2956 ft | 179 kts | 258° |
| 2026-05-05 03:30 | -23.11598 | -43.57600 | 2953 ft | 179 kts | 258° |
| 2026-05-05 03:30 | -23.11913 | -43.58908 | 2948 ft | 179 kts | 261° |
| 2026-05-05 03:30 | -23.12233 | -43.60217 | 2948 ft | 181 kts | 261° |
| 2026-05-05 03:31 | -23.12541 | -43.61539 | 2950 ft | 180 kts | 262° |
| 2026-05-05 03:31 | -23.12855 | -43.62856 | 2953 ft | 181 kts | 259° |
| 2026-05-05 03:31 | -23.13178 | -43.64162 | 2957 ft | 182 kts | 261° |
| 2026-05-05 03:31 | -23.13488 | -43.65487 | 2969 ft | 180 kts | 261° |
| 2026-05-05 03:32 | -23.13800 | -43.66798 | 3028 ft | 176 kts | 260° |
| 2026-05-05 03:32 | -23.14102 | -43.68050 | 3212 ft | 168 kts | 261° |
| 2026-05-05 03:32 | -23.14393 | -43.69265 | 3401 ft | 165 kts | 259° |
| 2026-05-05 03:32 | -23.14680 | -43.70460 | 3586 ft | 162 kts | 259° |
| 2026-05-05 03:33 | -23.14962 | -43.71639 | 3774 ft | 160 kts | 262° |
| 2026-05-05 03:33 | -23.15240 | -43.72809 | 3963 ft | 161 kts | 261° |
| 2026-05-05 03:33 | -23.15520 | -43.73982 | 4155 ft | 160 kts | 259° |
| 2026-05-05 03:33 | -23.15797 | -43.75151 | 4350 ft | 160 kts | 260° |
| 2026-05-05 03:34 | -23.16068 | -43.76321 | 4445 ft | 166 kts | 257° |
| 2026-05-05 03:34 | -23.16368 | -43.77564 | 4453 ft | 174 kts | 257° |
| 2026-05-05 03:34 | -23.16674 | -43.78850 | 4453 ft | 178 kts | 257° |
| 2026-05-05 03:34 | -23.16986 | -43.80161 | 4458 ft | 181 kts | 257° |
| 2026-05-05 03:35 | -23.17299 | -43.81487 | 4460 ft | 181 kts | 257° |
| 2026-05-05 03:35 | -23.17617 | -43.82810 | 4463 ft | 180 kts | 258° |
| 2026-05-05 03:35 | -23.17926 | -43.84137 | 4454 ft | 182 kts | 257° |
| 2026-05-05 03:35 | -23.18245 | -43.85463 | 4454 ft | 181 kts | 257° |
| 2026-05-05 03:36 | -23.18560 | -43.86770 | 4454 ft | 181 kts | 258° |
| 2026-05-05 03:36 | -23.18874 | -43.88098 | 4454 ft | 182 kts | 258° |
| 2026-05-05 03:36 | -23.19189 | -43.89427 | 4458 ft | 181 kts | 258° |
| 2026-05-05 03:36 | -23.19504 | -43.90754 | 4456 ft | 181 kts | 258° |
| 2026-05-05 03:37 | -23.19818 | -43.92081 | 4455 ft | 181 kts | 258° |
| 2026-05-05 03:37 | -23.20131 | -43.93407 | 4449 ft | 181 kts | 257° |
| 2026-05-05 03:37 | -23.20444 | -43.94731 | 4451 ft | 181 kts | 258° |
| 2026-05-05 03:37 | -23.20762 | -43.96055 | 4450 ft | 181 kts | 258° |
| 2026-05-05 03:38 | -23.20807 | -43.96246 | 4449 ft | 181 kts | 258° |
| 2026-05-05 03:38 | -23.21054 | -43.97290 | 4446 ft | 181 kts | 258° |
| 2026-05-05 03:38 | -23.21366 | -43.98614 | 4447 ft | 181 kts | 257° |
| 2026-05-05 03:39 | -23.21681 | -43.99941 | 4447 ft | 181 kts | 257° |
| 2026-05-05 03:39 | -23.21995 | -44.01267 | 4452 ft | 181 kts | 257° |
| 2026-05-05 03:39 | -23.22310 | -44.02598 | 4450 ft | 182 kts | 257° |
| 2026-05-05 03:39 | -23.22623 | -44.03924 | 4447 ft | 181 kts | 257° |
| 2026-05-05 03:40 | -23.22934 | -44.05242 | 4447 ft | 179 kts | 257° |
| 2026-05-05 03:40 | -23.23244 | -44.06553 | 4451 ft | 180 kts | 257° |
| 2026-05-05 03:40 | -23.23549 | -44.07852 | 4452 ft | 180 kts | 257° |
| 2026-05-05 03:40 | -23.23861 | -44.09170 | 4448 ft | 180 kts | 257° |
| 2026-05-05 03:41 | -23.24172 | -44.10490 | 4445 ft | 180 kts | 257° |
| 2026-05-05 03:41 | -23.24484 | -44.11812 | 4447 ft | 180 kts | 257° |
| 2026-05-05 03:41 | -23.24734 | -44.13144 | 4442 ft | 180 kts | 261° |
| 2026-05-05 03:41 | -23.24977 | -44.14474 | 4439 ft | 179 kts | 259° |
| 2026-05-05 03:42 | -23.25223 | -44.15802 | 4441 ft | 179 kts | 259° |
| 2026-05-05 03:42 | -23.25468 | -44.17133 | 4441 ft | 180 kts | 261° |
| 2026-05-05 03:42 | -23.25707 | -44.18446 | 4441 ft | 180 kts | 260° |
| 2026-05-05 03:42 | -23.25951 | -44.19780 | 4447 ft | 180 kts | 260° |
| 2026-05-05 03:43 | -23.26195 | -44.21112 | 4439 ft | 180 kts | 260° |
| 2026-05-05 03:43 | -23.26437 | -44.22443 | 4442 ft | 180 kts | 259° |
| 2026-05-05 03:43 | -23.26680 | -44.23775 | 4442 ft | 179 kts | 259° |
| 2026-05-05 03:43 | -23.26923 | -44.25103 | 4442 ft | 178 kts | 261° |
| 2026-05-05 03:44 | -23.27163 | -44.26426 | 4441 ft | 178 kts | 260° |
| 2026-05-05 03:44 | -23.27403 | -44.27746 | 4438 ft | 178 kts | 260° |
| 2026-05-05 03:44 | -23.27640 | -44.29047 | 4438 ft | 178 kts | 259° |
| 2026-05-05 03:44 | -23.27884 | -44.30385 | 4442 ft | 178 kts | 260° |
| 2026-05-05 03:45 | -23.28121 | -44.31685 | 4439 ft | 177 kts | 260° |
| 2026-05-05 03:45 | -23.28358 | -44.32996 | 4438 ft | 176 kts | 260° |
| 2026-05-05 03:45 | -23.28596 | -44.34302 | 4436 ft | 176 kts | 261° |
| 2026-05-05 03:45 | -23.28832 | -44.35606 | 4435 ft | 176 kts | 261° |
| 2026-05-05 03:46 | -23.29069 | -44.36914 | 4439 ft | 177 kts | 261° |
| 2026-05-05 03:46 | -23.29307 | -44.38228 | 4437 ft | 178 kts | 260° |
| 2026-05-05 03:46 | -23.29547 | -44.39547 | 4441 ft | 178 kts | 259° |
| 2026-05-05 03:46 | -23.29784 | -44.40847 | 4439 ft | 177 kts | 260° |
| 2026-05-05 03:47 | -23.30021 | -44.42163 | 4439 ft | 177 kts | 260° |
| 2026-05-05 03:47 | -23.30257 | -44.43475 | 4438 ft | 177 kts | 259° |
| 2026-05-05 03:47 | -23.30496 | -44.44786 | 4439 ft | 177 kts | 259° |
| 2026-05-05 03:47 | -23.30889 | -44.46053 | 4441 ft | 177 kts | 249° |
| 2026-05-05 03:48 | -23.31332 | -44.47304 | 4460 ft | 176 kts | 250° |
| 2026-05-05 03:48 | -23.31753 | -44.48520 | 4661 ft | 168 kts | 250° |
| 2026-05-05 03:48 | -23.32154 | -44.49681 | 4846 ft | 161 kts | 250° |
| 2026-05-05 03:48 | -23.32540 | -44.50801 | 5036 ft | 157 kts | 250° |
| 2026-05-05 03:49 | -23.32918 | -44.51893 | 5225 ft | 155 kts | 250° |
| 2026-05-05 03:49 | -23.33296 | -44.52991 | 5409 ft | 154 kts | 250° |
| 2026-05-05 03:49 | -23.33678 | -44.54104 | 5446 ft | 161 kts | 250° |
| 2026-05-05 03:49 | -23.34078 | -44.55265 | 5442 ft | 166 kts | 250° |
| 2026-05-05 03:50 | -23.34484 | -44.56449 | 5448 ft | 168 kts | 250° |
| 2026-05-05 03:50 | -23.34895 | -44.57645 | 5444 ft | 169 kts | 250° |
| 2026-05-05 03:50 | -23.35301 | -44.58836 | 5449 ft | 167 kts | 250° |
| 2026-05-05 03:50 | -23.35719 | -44.60032 | 5448 ft | 170 kts | 250° |
| 2026-05-05 03:51 | -23.36136 | -44.61246 | 5446 ft | 172 kts | 250° |
| 2026-05-05 03:51 | -23.36555 | -44.62469 | 5458 ft | 174 kts | 250° |
| 2026-05-05 03:51 | -23.36975 | -44.63688 | 5456 ft | 176 kts | 250° |
| 2026-05-05 03:51 | -23.37405 | -44.64937 | 5457 ft | 177 kts | 250° |
| 2026-05-05 03:52 | -23.37835 | -44.66190 | 5457 ft | 177 kts | 250° |
| 2026-05-05 03:52 | -23.38268 | -44.67446 | 5449 ft | 177 kts | 250° |
| 2026-05-05 03:52 | -23.38699 | -44.68704 | 5449 ft | 177 kts | 250° |
| 2026-05-05 03:52 | -23.39132 | -44.69964 | 5457 ft | 178 kts | 250° |
| 2026-05-05 03:53 | -23.39564 | -44.71225 | 5455 ft | 178 kts | 250° |
| 2026-05-05 03:53 | -23.39997 | -44.72485 | 5455 ft | 178 kts | 250° |
| 2026-05-05 03:53 | -23.40424 | -44.73727 | 5456 ft | 177 kts | 250° |
| 2026-05-05 03:53 | -23.40855 | -44.74986 | 5454 ft | 177 kts | 250° |
| 2026-05-05 03:54 | -23.41286 | -44.76242 | 5454 ft | 177 kts | 250° |
| 2026-05-05 03:54 | -23.41717 | -44.77500 | 5460 ft | 177 kts | 250° |
| 2026-05-05 03:54 | -23.42147 | -44.78757 | 5460 ft | 177 kts | 250° |
| 2026-05-05 03:54 | -23.42580 | -44.80015 | 5460 ft | 177 kts | 250° |
| 2026-05-05 03:55 | -23.43011 | -44.81276 | 5450 ft | 178 kts | 251° |
| 2026-05-05 03:55 | -23.43444 | -44.82535 | 5451 ft | 177 kts | 252° |
| 2026-05-05 03:55 | -23.43871 | -44.83796 | 5448 ft | 178 kts | 250° |
| 2026-05-05 03:55 | -23.44302 | -44.85045 | 5570 ft | 172 kts | 250° |
| 2026-05-05 03:56 | -23.44706 | -44.86224 | 5758 ft | 165 kts | 251° |
| 2026-05-05 03:56 | -23.45103 | -44.87383 | 5946 ft | 162 kts | 250° |
| 2026-05-05 03:56 | -23.45495 | -44.88525 | 6136 ft | 159 kts | 250° |
| 2026-05-05 03:56 | -23.45880 | -44.89652 | 6325 ft | 158 kts | 250° |
| 2026-05-05 03:57 | -23.46261 | -44.90767 | 6527 ft | 157 kts | 250° |
| 2026-05-05 03:57 | -23.46639 | -44.91873 | 6723 ft | 155 kts | 250° |
| 2026-05-05 03:57 | -23.47015 | -44.92971 | 6906 ft | 155 kts | 249° |
| 2026-05-05 03:57 | -23.47389 | -44.94067 | 7081 ft | 154 kts | 249° |
| 2026-05-05 03:58 | -23.47761 | -44.95156 | 7268 ft | 154 kts | 249° |
| 2026-05-05 03:58 | -23.48128 | -44.96233 | 7438 ft | 155 kts | 249° |
| 2026-05-05 03:58 | -23.48514 | -44.97367 | 7452 ft | 164 kts | 249° |
| 2026-05-05 03:58 | -23.48916 | -44.98554 | 7460 ft | 169 kts | 249° |
| 2026-05-05 03:59 | -23.49331 | -44.99770 | 7462 ft | 173 kts | 249° |
| 2026-05-05 03:59 | -23.49751 | -45.01006 | 7460 ft | 175 kts | 249° |
| 2026-05-05 03:59 | -23.50176 | -45.02252 | 7461 ft | 176 kts | 249° |
| 2026-05-05 03:59 | -23.50603 | -45.03504 | 7461 ft | 177 kts | 249° |
| 2026-05-05 04:00 | -23.51030 | -45.04760 | 7460 ft | 177 kts | 249° |
| 2026-05-05 04:00 | -23.51459 | -45.06016 | 7461 ft | 177 kts | 249° |
| 2026-05-05 04:00 | -23.51881 | -45.07259 | 7461 ft | 177 kts | 249° |
| 2026-05-05 04:00 | -23.52206 | -45.08550 | 7458 ft | 178 kts | 263° |
| 2026-05-05 04:01 | -23.52213 | -45.09899 | 7454 ft | 178 kts | 268° |
| 2026-05-05 04:01 | -23.52235 | -45.11249 | 7456 ft | 178 kts | 267° |
| 2026-05-05 04:01 | -23.52256 | -45.12600 | 7455 ft | 179 kts | 268° |
| 2026-05-05 04:01 | -23.52275 | -45.13952 | 7456 ft | 178 kts | 268° |
| 2026-05-05 04:02 | -23.52292 | -45.15303 | 7456 ft | 178 kts | 268° |
| 2026-05-05 04:02 | -23.52309 | -45.16654 | 7456 ft | 178 kts | 268° |
| 2026-05-05 04:02 | -23.52327 | -45.17985 | 7455 ft | 178 kts | 268° |
| 2026-05-05 04:02 | -23.52340 | -45.19341 | 7459 ft | 179 kts | 268° |
| 2026-05-05 04:03 | -23.52360 | -45.20694 | 7459 ft | 179 kts | 268° |
| 2026-05-05 04:03 | -23.52380 | -45.22052 | 7466 ft | 180 kts | 268° |
| 2026-05-05 04:03 | -23.52394 | -45.23418 | 7466 ft | 181 kts | 268° |
| 2026-05-05 04:03 | -23.52408 | -45.24785 | 7473 ft | 181 kts | 268° |
| 2026-05-05 04:04 | -23.52428 | -45.26145 | 7467 ft | 178 kts | 268° |
| 2026-05-05 04:04 | -23.52446 | -45.27492 | 7460 ft | 178 kts | 268° |
| 2026-05-05 04:04 | -23.52461 | -45.28841 | 7463 ft | 179 kts | 268° |
| 2026-05-05 04:04 | -23.52477 | -45.30177 | 7461 ft | 179 kts | 268° |
| 2026-05-05 04:05 | -23.52493 | -45.31529 | 7463 ft | 178 kts | 268° |
| 2026-05-05 04:05 | -23.52508 | -45.32881 | 7466 ft | 179 kts | 268° |
| 2026-05-05 04:05 | -23.52525 | -45.34237 | 7466 ft | 179 kts | 268° |
| 2026-05-05 04:05 | -23.52539 | -45.35612 | 7322 ft | 186 kts | 268° |
| 2026-05-05 04:06 | -23.52552 | -45.37052 | 7092 ft | 193 kts | 269° |
| 2026-05-05 04:06 | -23.52560 | -45.38530 | 6873 ft | 197 kts | 269° |
| 2026-05-05 04:06 | -23.52562 | -45.40037 | 6646 ft | 199 kts | 268° |
| 2026-05-05 04:06 | -23.52611 | -45.41533 | 6407 ft | 201 kts | 265° |
| 2026-05-05 04:07 | -23.52717 | -45.43056 | 6156 ft | 202 kts | 268° |
| 2026-05-05 04:07 | -23.52664 | -45.44580 | 5957 ft | 200 kts | 272° |
| 2026-05-05 04:07 | -23.52652 | -45.46067 | 5961 ft | 193 kts | 269° |
| 2026-05-05 04:07 | -23.52666 | -45.47511 | 5969 ft | 188 kts | 269° |
| 2026-05-05 04:08 | -23.52710 | -45.48935 | 5969 ft | 188 kts | 269° |
| 2026-05-05 04:08 | -23.52678 | -45.50342 | 5958 ft | 183 kts | 270° |
| 2026-05-05 04:08 | -23.52696 | -45.51726 | 5959 ft | 183 kts | 269° |
| 2026-05-05 04:08 | -23.52724 | -45.53102 | 5958 ft | 181 kts | 269° |
| 2026-05-05 04:09 | -23.52742 | -45.54461 | 5954 ft | 181 kts | 268° |
| 2026-05-05 04:09 | -23.52778 | -45.55832 | 5964 ft | 183 kts | 269° |
| 2026-05-05 04:09 | -23.52788 | -45.57218 | 5959 ft | 183 kts | 269° |
| 2026-05-05 04:09 | -23.52786 | -45.58588 | 5965 ft | 179 kts | 270° |
| 2026-05-05 04:10 | -23.52773 | -45.59963 | 5952 ft | 182 kts | 270° |
| 2026-05-05 04:10 | -23.52788 | -45.61339 | 5976 ft | 183 kts | 267° |
| 2026-05-05 04:10 | -23.52876 | -45.62711 | 5963 ft | 181 kts | 268° |
| 2026-05-05 04:10 | -23.52859 | -45.64070 | 5959 ft | 177 kts | 271° |
| 2026-05-05 04:11 | -23.52854 | -45.65394 | 5959 ft | 177 kts | 269° |
| 2026-05-05 04:11 | -23.52873 | -45.66741 | 5972 ft | 181 kts | 269° |
| 2026-05-05 04:11 | -23.52968 | -45.68125 | 5953 ft | 185 kts | 264° |
| 2026-05-05 04:11 | -23.52935 | -45.69508 | 5975 ft | 183 kts | 272° |
| 2026-05-05 04:12 | -23.52889 | -45.70889 | 5963 ft | 182 kts | 271° |
| 2026-05-05 04:12 | -23.52888 | -45.72271 | 5972 ft | 182 kts | 269° |
| 2026-05-05 04:12 | -23.52892 | -45.73656 | 5958 ft | 182 kts | 269° |
| 2026-05-05 04:12 | -23.52933 | -45.75021 | 5967 ft | 180 kts | 268° |
| 2026-05-05 04:13 | -23.52957 | -45.76366 | 5975 ft | 181 kts | 268° |
| 2026-05-05 04:13 | -23.53046 | -45.77738 | 5974 ft | 183 kts | 269° |
| 2026-05-05 04:13 | -23.52980 | -45.79139 | 5983 ft | 187 kts | 271° |
| 2026-05-05 04:13 | -23.53017 | -45.80538 | 5971 ft | 182 kts | 269° |
| 2026-05-05 04:14 | -23.53002 | -45.81906 | 5988 ft | 181 kts | 270° |
| 2026-05-05 04:14 | -23.52966 | -45.83281 | 5985 ft | 180 kts | 269° |
| 2026-05-05 04:14 | -23.53029 | -45.84643 | 5974 ft | 179 kts | 266° |
| 2026-05-05 04:14 | -23.53230 | -45.85976 | 5965 ft | 178 kts | 259° |
| 2026-05-05 04:15 | -23.53462 | -45.87299 | 5970 ft | 178 kts | 261° |
| 2026-05-05 04:15 | -23.53659 | -45.88615 | 5983 ft | 180 kts | 260° |
| 2026-05-05 04:15 | -23.53877 | -45.89961 | 5972 ft | 179 kts | 261° |
| 2026-05-05 04:15 | -23.54076 | -45.91300 | 5978 ft | 179 kts | 261° |
| 2026-05-05 04:16 | -23.54285 | -45.92646 | 5966 ft | 182 kts | 261° |
| 2026-05-05 04:16 | -23.54494 | -45.94047 | 5707 ft | 193 kts | 261° |
| 2026-05-05 04:16 | -23.54727 | -45.95509 | 5474 ft | 197 kts | 262° |
| 2026-05-05 04:16 | -23.54953 | -45.96950 | 5459 ft | 189 kts | 260° |
| 2026-05-05 04:17 | -23.55175 | -45.98334 | 5459 ft | 185 kts | 261° |
| 2026-05-05 04:17 | -23.55388 | -45.99706 | 5447 ft | 181 kts | 261° |
| 2026-05-05 04:17 | -23.55595 | -46.01038 | 5448 ft | 181 kts | 261° |
| 2026-05-05 04:17 | -23.55803 | -46.02386 | 5445 ft | 181 kts | 261° |
| 2026-05-05 04:18 | -23.56013 | -46.03729 | 5450 ft | 179 kts | 261° |
| 2026-05-05 04:18 | -23.56222 | -46.05064 | 5449 ft | 178 kts | 261° |
| 2026-05-05 04:18 | -23.56360 | -46.06399 | 5448 ft | 176 kts | 267° |
| 2026-05-05 04:18 | -23.56438 | -46.07727 | 5448 ft | 176 kts | 269° |
| 2026-05-05 04:19 | -23.56495 | -46.09064 | 5386 ft | 180 kts | 270° |
| 2026-05-05 04:19 | -23.56466 | -46.10397 | 5467 ft | 175 kts | 274° |
| 2026-05-05 04:19 | -23.56374 | -46.11755 | 5265 ft | 186 kts | 282° |
| 2026-05-05 04:19 | -23.55789 | -46.12940 | 5397 ft | 176 kts | 312° |
| 2026-05-05 04:20 | -23.54607 | -46.13398 | 4995 ft | 195 kts | 5° |
| 2026-05-05 04:20 | -23.53490 | -46.12665 | 4965 ft | 190 kts | 46° |
| 2026-05-05 04:20 | -23.52907 | -46.11388 | 4877 ft | 190 kts | 81° |
| 2026-05-05 04:20 | -23.53112 | -46.09994 | 4789 ft | 194 kts | 112° |
| 2026-05-05 04:21 | -23.53833 | -46.08802 | 4603 ft | 180 kts | 127° |
| 2026-05-05 04:21 | -23.54724 | -46.07833 | 4086 ft | 184 kts | 139° |
| 2026-05-05 04:21 | -23.55707 | -46.06997 | 3732 ft | 175 kts | 137° |
| 2026-05-05 04:21 | -23.56497 | -46.06112 | 3636 ft | 155 kts | 123° |
| 2026-05-05 04:22 | -23.56936 | -46.05139 | 3632 ft | 135 kts | 88° |
| 2026-05-05 04:22 | -23.56624 | -46.04317 | 3654 ft | 117 kts | 43° |
| 2026-05-05 04:22 | -23.55869 | -46.03920 | 3462 ft | 119 kts | 9° |
| 2026-05-05 04:22 | -23.55065 | -46.04012 | 3348 ft | 118 kts | 339° |
| 2026-05-05 04:23 | -23.54393 | -46.04569 | 3229 ft | 122 kts | 312° |
| 2026-05-05 04:23 | -23.53907 | -46.05325 | 3151 ft | 119 kts | 307° |
| 2026-05-05 04:23 | -23.53506 | -46.06185 | 3115 ft | 133 kts | 298° |
| 2026-05-05 04:23 | -23.53229 | -46.07156 | 3122 ft | 140 kts | 283° |
| 2026-05-05 04:24 | -23.53088 | -46.08234 | 3079 ft | 145 kts | 282° |
| 2026-05-05 04:24 | -23.52973 | -46.09347 | 3044 ft | 149 kts | 277° |
| 2026-05-05 04:24 | -23.52915 | -46.10478 | 3081 ft | 152 kts | 276° |
| 2026-05-05 04:25 | -23.53369 | -46.12739 | 3360 ft | 175 kts | 227° |
| 2026-05-05 04:25 | -23.54461 | -46.13181 | 3464 ft | 177 kts | 174° |
| 2026-05-05 04:25 | -23.55586 | -46.12657 | 3451 ft | 179 kts | 142° |
| 2026-05-05 04:25 | -23.56503 | -46.11744 | 3486 ft | 176 kts | 123° |
| 2026-05-05 04:26 | -23.56670 | -46.10518 | 3400 ft | 172 kts | 66° |
| 2026-05-05 04:26 | -23.56082 | -46.09449 | 3540 ft | 168 kts | 50° |
| 2026-05-05 04:26 | -23.55460 | -46.08410 | 3625 ft | 166 kts | 58° |
| 2026-05-05 04:26 | -23.54911 | -46.07266 | 3579 ft | 172 kts | 60° |
| 2026-05-05 04:27 | -23.54259 | -46.06195 | 3681 ft | 166 kts | 45° |
| 2026-05-05 04:27 | -23.53278 | -46.05635 | 3806 ft | 159 kts | 359° |
| 2026-05-05 04:27 | -23.52446 | -46.06299 | 4037 ft | 158 kts | 292° |
| 2026-05-05 04:27 | -23.52223 | -46.07434 | 4240 ft | 159 kts | 284° |
| 2026-05-05 04:28 | -23.52038 | -46.08713 | 4055 ft | 179 kts | 278° |
| 2026-05-05 04:28 | -23.51963 | -46.10090 | 3964 ft | 183 kts | 275° |
| 2026-05-05 04:28 | -23.51981 | -46.11455 | 3892 ft | 182 kts | 269° |
| 2026-05-05 04:28 | -23.52319 | -46.12713 | 3973 ft | 174 kts | 229° |
| 2026-05-05 04:29 | -23.53390 | -46.13172 | 3942 ft | 174 kts | 184° |
| 2026-05-05 04:29 | -23.54580 | -46.12777 | 3666 ft | 178 kts | 136° |
| 2026-05-05 04:29 | -23.55055 | -46.11566 | 3353 ft | 175 kts | 95° |
| 2026-05-05 04:29 | -23.55263 | -46.10362 | 3057 ft | 151 kts | 101° |
| 2026-05-05 04:30 | -23.55596 | -46.09342 | 2815 ft | 126 kts | 110° |
| 2026-05-05 04:30 | -23.55876 | -46.08518 | 2642 ft | 115 kts | 108° |
| 2026-05-05 04:30 | -23.56149 | -46.07717 | 2507 ft | 113 kts | 106° |
| 2026-05-05 04:30 | -23.56303 | -46.07201 | 2472 ft | 0 kts | 118° |
| 2026-05-05 04:31 | -23.56304 | -46.07198 | 2472 ft | 6 kts | 120° |
| 2026-05-05 04:31 | -23.56356 | -46.07082 | 2475 ft | 24 kts | 112° |
| 2026-05-05 04:31 | -23.56430 | -46.06868 | 2475 ft | 35 kts | 112° |
| 2026-05-05 04:31 | -23.56507 | -46.06738 | 2475 ft | 6 kts | 206° |
| 2026-05-05 04:32 | -23.56544 | -46.06773 | 2472 ft | 3 kts | 226° |
| 2026-05-05 04:32 | -23.56555 | -46.06798 | 2471 ft | 0 kts | 246° |